createdAt,value
2023-12-22T00:00:57.913Z,94738.81
2023-12-22T00:04:59.619Z,94735.91
2023-12-22T00:09:01.252Z,94741.53
2023-12-22T00:13:02.948Z,94733.56
2023-12-22T00:17:04.871Z,94757.91
2023-12-22T00:21:11.420Z,94771.38
2023-12-22T00:25:13.222Z,94774.91
2023-12-22T00:29:15.645Z,94770.22
2023-12-22T00:33:18.255Z,94780.69
2023-12-22T00:37:19.951Z,94792.63
2023-12-22T00:41:21.553Z,94758.66
2023-12-22T00:45:23.289Z,94771.09
2023-12-22T00:49:24.956Z,94766.53
2023-12-22T00:53:26.738Z,94767.34
2023-12-22T00:57:28.334Z,94787.31
2023-12-22T01:01:29.966Z,94801.69
2023-12-22T01:05:31.688Z,94795.84
2023-12-22T01:09:33.873Z,94810.53
2023-12-22T01:13:35.505Z,94812.91
2023-12-22T01:17:37.645Z,94784.09
2023-12-22T01:21:39.312Z,94785.06
2023-12-22T01:25:40.942Z,94791.00
2023-12-22T01:29:42.512Z,94780.13
2023-12-22T01:33:44.271Z,94793.88
2023-12-22T01:37:48.561Z,94787.31
2023-12-22T01:41:50.335Z,94799.91
2023-12-22T01:45:57.085Z,94808.59
2023-12-22T01:49:58.933Z,94808.59
2023-12-22T01:54:01.735Z,94828.22
2023-12-22T01:58:03.725Z,94814.13
2023-12-22T02:02:05.445Z,94820.16
2023-12-22T02:06:07.608Z,94808.38
2023-12-22T02:10:09.987Z,94805.84
2023-12-22T02:14:11.718Z,94794.38
2023-12-22T02:18:23.026Z,94786.03
2023-12-22T02:22:24.644Z,94811.88
2023-12-22T02:26:32.612Z,94805.97
2023-12-22T02:30:57.653Z,94797.72
2023-12-22T02:35:03.617Z,94802.03
2023-12-22T02:39:06.398Z,94787.78
2023-12-22T02:43:08.405Z,94786.84
2023-12-22T02:47:10.246Z,94794.16
2023-12-22T02:51:11.902Z,94812.13
2023-12-22T02:55:13.690Z,94815.22
2023-12-22T02:59:15.758Z,94801.41
2023-12-22T03:03:17.435Z,94803.59
2023-12-22T03:07:19.100Z,94806.41
2023-12-22T03:11:20.827Z,94823.34
2023-12-22T03:15:22.440Z,94830.59
2023-12-22T03:19:24.099Z,94852.06
2023-12-22T03:23:25.675Z,94850.47
2023-12-22T03:27:27.297Z,94835.00
2023-12-22T03:31:28.905Z,94840.53
2023-12-22T03:35:30.826Z,94848.53
2023-12-22T03:39:32.424Z,94843.06
2023-12-22T03:43:35.301Z,94866.88
2023-12-22T03:47:36.964Z,94851.34
2023-12-22T03:51:39.468Z,94845.03
2023-12-22T03:55:41.128Z,94862.34
2023-12-22T03:59:44.601Z,94848.69
2023-12-22T04:03:46.211Z,94854.94
2023-12-22T04:07:48.405Z,94854.19
2023-12-22T04:11:50.175Z,94840.63
2023-12-22T04:15:51.785Z,94828.97
2023-12-22T04:19:54.098Z,94832.41
2023-12-22T04:23:55.790Z,94824.69
2023-12-22T04:27:57.370Z,94842.75
2023-12-22T04:31:59.128Z,94840.97
2023-12-22T04:36:00.752Z,94840.88
2023-12-22T04:40:03.033Z,94838.91
2023-12-22T04:44:04.825Z,94833.44
2023-12-22T04:48:07.263Z,94856.84
2023-12-22T04:52:08.891Z,94852.81
2023-12-22T04:56:10.857Z,94860.22
2023-12-22T05:00:13.382Z,94871.94
2023-12-22T05:04:15.311Z,94870.16
2023-12-22T05:08:17.481Z,94875.44
2023-12-22T05:12:19.115Z,94856.09
2023-12-22T05:16:20.875Z,94870.31
2023-12-22T05:20:22.511Z,94869.81
2023-12-22T05:24:24.235Z,94874.53
2023-12-22T05:28:26.927Z,94891.81
2023-12-22T05:32:28.691Z,94885.03
2023-12-22T05:36:31.893Z,94906.03
2023-12-22T05:40:33.593Z,94892.28
2023-12-22T05:44:35.858Z,94880.47
2023-12-22T05:48:37.883Z,94884.69
2023-12-22T05:52:39.594Z,94891.00
2023-12-22T05:56:41.494Z,94897.31
2023-12-22T06:00:43.891Z,94901.19
2023-12-22T06:04:45.643Z,94913.41
2023-12-22T06:08:47.325Z,94909.09
2023-12-22T06:12:48.952Z,94911.16
2023-12-22T06:16:51.862Z,94912.13
2023-12-22T06:20:53.710Z,94898.38
2023-12-22T06:24:55.525Z,94905.84
2023-12-22T06:28:57.599Z,94921.72
2023-12-22T06:32:59.416Z,94910.06
2023-12-22T06:37:01.205Z,94906.19
2023-12-22T06:41:02.929Z,94925.41
2023-12-22T06:45:04.764Z,94923.19
2023-12-22T06:49:07.666Z,94922.06
2023-12-22T06:53:14.237Z,94921.75
2023-12-22T06:57:25.120Z,94931.94
2023-12-22T07:01:29.240Z,94938.06
2023-12-22T07:05:31.132Z,94947.28
2023-12-22T07:09:33.117Z,94956.97
2023-12-22T07:13:34.825Z,94982.50
2023-12-22T07:17:36.648Z,94956.66
2023-12-22T07:21:38.264Z,94973.13
2023-12-22T07:25:39.956Z,94974.56
2023-12-22T07:29:41.622Z,94965.84
2023-12-22T07:33:43.248Z,94951.63
2023-12-22T07:37:44.907Z,94968.56
2023-12-22T07:41:46.564Z,94967.72
2023-12-22T07:45:49.022Z,94979.53
2023-12-22T07:49:51.387Z,94970.13
2023-12-22T07:53:53.314Z,94966.16
2023-12-22T07:57:54.967Z,94980.09
2023-12-22T08:01:56.564Z,95004.97
2023-12-22T08:05:58.259Z,94996.91
2023-12-22T08:10:00.127Z,95005.63
2023-12-22T08:14:01.780Z,94997.31
2023-12-22T08:18:03.775Z,95012.22
2023-12-22T08:22:07.404Z,95005.88
2023-12-22T08:26:10.293Z,95002.00
2023-12-22T08:30:12.312Z,95014.13
2023-12-22T08:34:14.194Z,95030.91
2023-12-22T08:38:16.583Z,95052.91
2023-12-22T08:42:18.835Z,95060.66
2023-12-22T08:46:20.866Z,95068.94
2023-12-22T08:50:22.825Z,95060.38
2023-12-22T08:54:24.437Z,95051.06
2023-12-22T08:58:26.151Z,95057.19
2023-12-22T09:02:28.020Z,95083.63
2023-12-22T09:06:29.838Z,95080.47
2023-12-22T09:10:33.495Z,95088.94
2023-12-22T09:14:35.101Z,95086.88
2023-12-22T09:18:37.367Z,95083.03
2023-12-22T09:22:39.640Z,95094.09
2023-12-22T09:26:41.225Z,95088.44
2023-12-22T09:30:42.967Z,95071.19
2023-12-22T09:34:44.612Z,95066.56
2023-12-22T09:38:46.237Z,95072.41
2023-12-22T09:42:48.086Z,95058.47
2023-12-22T09:46:53.493Z,95049.38
2023-12-22T09:50:55.844Z,95056.47
2023-12-22T09:54:58.678Z,95067.81
2023-12-22T09:59:01.301Z,95041.97
2023-12-22T10:03:03.437Z,95036.50
2023-12-22T10:07:06.370Z,95033.13
2023-12-22T10:11:10.112Z,95065.72
2023-12-22T10:15:13.933Z,95051.00
2023-12-22T10:19:16.307Z,95039.44
2023-12-22T10:23:17.973Z,95042.22
2023-12-22T10:27:23.559Z,95052.31
2023-12-22T10:31:26.681Z,95034.84
2023-12-22T10:35:28.411Z,95029.66
2023-12-22T10:39:31.438Z,95022.47
2023-12-22T10:43:39.746Z,95010.16
2023-12-22T10:47:41.918Z,95008.25
2023-12-22T10:51:43.848Z,95004.34
2023-12-22T10:55:48.109Z,94982.09
2023-12-22T10:59:57.534Z,94994.47
2023-12-22T11:04:04.258Z,94984.28
2023-12-22T11:08:09.889Z,94993.13
2023-12-22T11:12:12.888Z,94988.44
2023-12-22T11:16:16.213Z,94968.38
2023-12-22T11:20:19.250Z,94969.72
2023-12-22T11:24:22.714Z,94964.63
2023-12-22T11:28:25.327Z,94961.28
2023-12-22T11:32:30.632Z,94957.69
2023-12-22T11:36:32.928Z,94972.88
2023-12-22T11:40:34.630Z,94982.28
2023-12-22T11:44:36.493Z,94980.50
2023-12-22T11:48:39.891Z,94965.53
2023-12-22T11:52:41.709Z,94946.25
2023-12-22T11:56:43.371Z,94928.97
2023-12-22T12:00:45.141Z,94921.66
2023-12-22T12:04:49.171Z,94911.34
2023-12-22T12:08:52.140Z,94910.00
2023-12-22T12:13:10.518Z,94911.44
2023-12-22T12:17:12.924Z,94897.41
2023-12-22T12:21:16.706Z,94902.84
2023-12-22T12:25:25.901Z,94892.19
2023-12-22T12:29:33.198Z,94859.16
2023-12-22T12:33:36.963Z,94849.84
2023-12-22T12:37:39.553Z,94842.31
2023-12-22T12:41:45.311Z,94848.31
2023-12-22T12:45:47.895Z,94839.59
2023-12-22T12:49:58.307Z,94836.09
2023-12-22T12:54:01.157Z,94825.97
2023-12-22T12:58:04.702Z,94804.06
2023-12-22T13:02:06.519Z,94818.13
2023-12-22T13:06:09.400Z,94813.19
2023-12-22T13:10:24.411Z,94789.91
2023-12-22T13:14:26.598Z,94789.91
2023-12-22T13:18:28.484Z,94791.56
2023-12-22T13:22:30.194Z,94783.41
2023-12-22T13:26:31.807Z,94794.81
2023-12-22T13:30:43.301Z,94796.91
2023-12-22T13:34:52.405Z,94780.19
2023-12-22T13:38:54.329Z,94772.63
2023-12-22T13:42:59.681Z,94766.69
2023-12-22T13:47:05.358Z,94767.94
2023-12-22T13:51:07.389Z,94780.81
2023-12-22T13:55:16.584Z,94757.63
2023-12-22T13:59:19.250Z,94770.47
2023-12-22T14:03:24.210Z,94787.13
2023-12-22T14:07:26.016Z,94794.63
2023-12-22T14:11:30.271Z,94779.78
2023-12-22T14:15:38.235Z,94780.19
2023-12-22T14:19:46.151Z,94774.47
2023-12-22T14:23:47.800Z,94783.63
2023-12-22T14:27:49.533Z,94782.97
2023-12-22T14:31:52.168Z,94786.81
2023-12-22T14:35:54.097Z,94771.22
2023-12-22T14:39:57.052Z,94785.44
2023-12-22T14:43:58.704Z,94776.38
2023-12-22T14:48:00.337Z,94784.78
2023-12-22T14:52:02.113Z,94790.41
2023-12-22T14:56:04.013Z,94798.84
2023-12-22T15:00:06.772Z,94816.16
2023-12-22T15:04:09.928Z,94812.28
2023-12-22T15:08:11.677Z,94822.25
2023-12-22T15:12:13.435Z,94830.03
2023-12-22T15:16:15.460Z,94832.16
2023-12-22T15:20:17.235Z,94831.38
2023-12-22T15:24:18.942Z,94832.59
2023-12-22T15:28:20.697Z,94813.44
2023-12-22T15:32:22.373Z,94829.72
2023-12-22T15:36:24.766Z,94839.41
2023-12-22T15:40:26.424Z,94847.44
2023-12-22T15:44:30.549Z,94838.84
2023-12-22T15:48:32.395Z,94838.66
2023-12-22T15:52:34.066Z,94846.34
2023-12-22T15:56:35.665Z,94857.59
2023-12-22T16:00:37.394Z,94835.00
2023-12-22T16:04:39.029Z,94853.03
2023-12-22T16:08:43.142Z,94866.63
2023-12-22T16:12:45.231Z,94855.25
2023-12-22T16:16:46.970Z,94861.03
2023-12-22T16:20:48.741Z,94852.84
2023-12-22T16:24:50.321Z,94858.88
2023-12-22T16:28:52.122Z,94857.44
2023-12-22T16:32:54.243Z,94856.59
2023-12-22T16:36:56.058Z,94847.97
2023-12-22T16:40:58.015Z,94843.44
2023-12-22T16:45:00.374Z,94837.97
2023-12-22T16:49:04.485Z,94833.41
2023-12-22T16:53:06.328Z,94823.59
2023-12-22T16:57:09.043Z,94832.69
2023-12-22T17:01:22.380Z,94828.53
2023-12-22T17:05:32.326Z,94830.94
2023-12-22T17:09:34.623Z,94828.41
2023-12-22T17:13:36.260Z,94843.63
2023-12-22T17:17:38.280Z,94855.25
2023-12-22T17:21:43.277Z,94850.06
2023-12-22T17:25:53.293Z,94854.88
2023-12-22T17:29:58.065Z,94854.47
2023-12-22T17:34:00.153Z,94854.69
2023-12-22T17:38:02.002Z,94838.47
2023-12-22T17:42:03.795Z,94840.31
2023-12-22T17:46:05.386Z,94833.53
2023-12-22T17:50:07.642Z,94827.66
2023-12-22T17:54:09.289Z,94841.50
2023-12-22T17:58:10.870Z,94852.16
2023-12-22T18:02:12.709Z,94854.19
2023-12-22T18:06:18.357Z,94831.16
2023-12-22T18:10:20.231Z,94856.03
2023-12-22T18:14:21.902Z,94866.25
2023-12-22T18:18:23.652Z,94878.84
2023-12-22T18:22:25.433Z,94894.75
2023-12-22T18:26:27.041Z,94871.47
2023-12-22T18:30:28.611Z,94881.13
2023-12-22T18:34:30.748Z,94872.84
2023-12-22T18:38:32.332Z,94884.91
2023-12-22T18:42:33.917Z,94874.66
2023-12-22T18:46:35.558Z,94872.84
2023-12-22T18:50:37.380Z,94886.63
2023-12-22T18:54:39.167Z,94901.47
2023-12-22T18:58:41.154Z,94894.53
2023-12-22T19:02:55.731Z,94887.94
2023-12-22T19:07:01.116Z,94907.13
2023-12-22T19:11:04.072Z,94896.91
2023-12-22T19:15:06.498Z,94901.31
2023-12-22T19:19:08.535Z,94904.91
2023-12-22T19:23:10.227Z,94903.53
2023-12-22T19:27:11.921Z,94913.31
2023-12-22T19:31:14.089Z,94917.38
2023-12-22T19:35:15.936Z,94903.56
2023-12-22T19:39:17.612Z,94930.38
2023-12-22T19:43:19.179Z,94940.22
2023-12-22T19:47:22.400Z,94938.00
2023-12-22T19:51:25.432Z,94939.63
2023-12-22T19:55:30.336Z,94934.78
2023-12-22T19:59:31.916Z,94928.94
2023-12-22T20:03:33.540Z,94944.84
2023-12-22T20:07:35.167Z,94935.78
2023-12-22T20:11:36.793Z,94953.66
2023-12-22T20:15:38.374Z,94963.84
2023-12-22T20:19:41.115Z,94964.88
2023-12-22T20:23:42.789Z,94964.22
2023-12-22T20:27:44.506Z,94993.72
2023-12-22T20:31:46.284Z,94988.59
2023-12-22T20:35:49.152Z,94977.25
2023-12-22T20:39:50.703Z,94974.50
2023-12-22T20:43:53.544Z,94984.72
2023-12-22T20:47:55.785Z,94988.69
2023-12-22T20:51:57.845Z,94994.03
2023-12-22T20:55:59.679Z,94992.31
2023-12-22T21:00:01.344Z,94981.22
2023-12-22T21:04:03.009Z,94986.69
2023-12-22T21:08:05.968Z,94974.69
2023-12-22T21:12:07.973Z,94980.06
2023-12-22T21:16:10.204Z,94973.72
2023-12-22T21:20:12.176Z,94978.25
2023-12-22T21:24:15.058Z,94978.22
2023-12-22T21:28:17.470Z,94980.66
2023-12-22T21:32:19.310Z,94986.50
2023-12-22T21:36:23.864Z,95002.72
2023-12-22T21:40:25.605Z,94969.84
2023-12-22T21:44:27.198Z,94972.09
2023-12-22T21:48:29.292Z,94986.53
2023-12-22T21:52:31.074Z,95002.59
2023-12-22T21:56:33.020Z,94988.13
2023-12-22T22:00:35.073Z,95000.31
2023-12-22T22:04:36.873Z,94964.25
2023-12-22T22:08:38.642Z,94976.34
2023-12-22T22:12:42.791Z,94975.72
2023-12-22T22:16:46.489Z,94986.09
2023-12-22T22:20:48.402Z,94997.53
2023-12-22T22:24:49.999Z,95000.56
2023-12-22T22:28:51.779Z,94994.34
2023-12-22T22:32:54.199Z,95013.13
2023-12-22T22:36:55.993Z,95004.16
2023-12-22T22:40:57.692Z,94996.69
2023-12-22T22:44:59.406Z,95016.53
2023-12-22T22:49:01.008Z,95014.38
2023-12-22T22:53:08.138Z,95007.84
2023-12-22T22:57:11.281Z,95015.03
2023-12-22T23:01:13.330Z,95041.19
2023-12-22T23:05:15.008Z,95037.38
2023-12-22T23:09:16.804Z,95047.94
2023-12-22T23:13:18.372Z,95063.97
2023-12-22T23:17:20.013Z,95065.69
2023-12-22T23:21:21.687Z,95075.03
2023-12-22T23:25:23.998Z,95069.63
2023-12-22T23:29:25.610Z,95068.88
2023-12-22T23:33:27.376Z,95070.69
2023-12-22T23:37:29.122Z,95060.97
2023-12-22T23:41:31.110Z,95080.38
2023-12-22T23:45:32.867Z,95062.41
2023-12-22T23:49:34.522Z,95098.91
2023-12-22T23:53:36.294Z,95099.63
2023-12-22T23:57:37.944Z,95106.28
